Time;durP1;ratioP1;P1;durP2;ratioP2;P2;SDS_P1;SDS_P2;PMS_P1;PMS_P2;Temp;Humidity;BMP_temperature;BMP_pressure;BME280_temperature;BME280_humidity;BME280_pressure;Samples;Min_cycle;Max_cycle;Signal;HPM_P1;HPM_P2
2022/07/04 00:03:46;;;;;;;2.07;1.97;;;23.10;82.80;;;;;;10459348;28;20208;-78
2022/07/04 00:08:48;;;;;;;2.93;2.70;;;23.20;85.10;;;;;;10459339;28;20237;-78
2022/07/04 00:13:50;;;;;;;2.30;2.20;;;23.20;85.60;;;;;;10462776;28;20201;-79
2022/07/04 00:18:54;;;;;;;2.33;2.13;;;23.20;84.90;;;;;;10456746;28;20246;-79
2022/07/04 00:23:56;;;;;;;4.70;2.47;;;23.20;86.20;;;;;;10456349;28;20284;-79
2022/07/04 00:28:59;;;;;;;2.40;2.20;;;23.30;88.10;;;;;;10458405;28;20654;-78
2022/07/04 00:34:02;;;;;;;3.10;2.40;;;23.20;86.70;;;;;;10458798;28;20205;-79
2022/07/04 00:39:04;;;;;;;2.30;2.20;;;23.20;84.90;;;;;;10459816;28;20252;-78
2022/07/04 00:44:08;;;;;;;3.37;2.10;;;23.20;84.30;;;;;;10454863;28;20197;-78
2022/07/04 00:49:13;;;;;;;2.40;2.20;;;23.20;86.40;;;;;;10448808;28;20267;-78
2022/07/04 00:54:17;;;;;;;3.67;2.40;;;23.20;86.10;;;;;;10452165;28;20207;-78
2022/07/04 00:59:19;;;;;;;2.50;2.40;;;23.20;84.30;;;;;;10449906;28;21039;-78
2022/07/04 01:04:24;;;;;;;2.37;2.27;;;23.10;84.30;;;;;;10448708;28;20255;-78
2022/07/04 01:09:26;;;;;;;2.50;2.30;;;23.10;83.20;;;;;;10447942;28;20206;-78
2022/07/04 01:14:28;;;;;;;2.80;2.67;;;23.10;83.20;;;;;;10432110;28;20190;-77
2022/07/04 01:19:31;;;;;;;2.67;2.47;;;23.00;84.40;;;;;;10447142;28;20224;-77
2022/07/04 01:24:35;;;;;;;2.30;2.20;;;23.00;83.80;;;;;;10451444;28;20193;-77
2022/07/04 01:29:37;;;;;;;2.50;2.40;;;23.00;85.00;;;;;;10453447;28;20233;-76
2022/07/04 01:34:39;;;;;;;2.53;2.43;;;22.90;83.50;;;;;;10448335;28;20201;-77
2022/07/04 01:39:43;;;;;;;2.80;2.63;;;22.90;83.70;;;;;;10447453;28;20256;-77
2022/07/04 01:44:45;;;;;;;3.10;2.90;;;22.90;82.50;;;;;;10455637;28;20213;-77
2022/07/04 01:49:47;;;;;;;3.03;2.90;;;22.90;85.40;;;;;;10450252;28;20236;-77
2022/07/04 01:54:51;;;;;;;3.00;2.80;;;22.90;86.70;;;;;;10451968;28;20228;-76
2022/07/04 02:05:12;;;;;;;3.20;3.00;;;22.80;84.80;;;;;;10442497;28;20209;-77
2022/07/04 02:10:16;;;;;;;3.13;3.00;;;22.80;87.00;;;;;;10449324;28;20206;-77
2022/07/04 02:15:18;;;;;;;3.27;3.10;;;22.70;85.50;;;;;;10458678;28;20196;-77
2022/07/04 02:20:20;;;;;;;3.27;3.00;;;22.70;87.50;;;;;;10450841;28;20244;-76
2022/07/04 02:25:23;;;;;;;3.50;3.30;;;22.70;88.70;;;;;;10448039;28;20678;-77
2022/07/04 02:30:30;;;;;;;2.97;2.87;;;22.60;91.30;;;;;;10448270;28;20217;-76
2022/07/04 02:35:32;;;;;;;3.40;3.10;;;22.60;94.70;;;;;;10431035;28;20688;-77
2022/07/04 02:40:36;;;;;;;3.73;3.50;;;22.50;91.10;;;;;;10445825;28;20312;-77
2022/07/04 02:45:38;;;;;;;3.17;2.97;;;22.40;89.70;;;;;;10429519;28;20241;-78
2022/07/04 02:50:40;;;;;;;3.03;2.80;;;22.40;87.60;;;;;;10446093;28;20600;-77
2022/07/04 02:55:43;;;;;;;3.23;3.03;;;22.30;88.10;;;;;;10447136;28;20211;-77
2022/07/04 03:00:45;;;;;;;3.30;3.10;;;22.20;88.30;;;;;;10431749;28;20336;-75
2022/07/04 03:05:48;;;;;;;3.47;3.27;;;22.20;87.10;;;;;;10432243;28;20657;-77
2022/07/04 03:10:51;;;;;;;4.00;3.70;;;22.20;88.50;;;;;;10430405;28;20266;-76
2022/07/04 03:15:53;;;;;;;3.50;3.20;;;22.10;87.30;;;;;;10446341;28;20646;-76
2022/07/04 03:20:56;;;;;;;3.33;3.03;;;22.10;84.80;;;;;;10445565;28;20308;-76
2022/07/04 03:26:00;;;;;;;4.00;3.40;;;22.00;87.50;;;;;;10445995;28;20220;-76
2022/07/04 03:31:02;;;;;;;3.60;3.30;;;22.00;89.40;;;;;;10448866;28;20213;-77
2022/07/04 03:36:04;;;;;;;3.37;3.17;;;22.00;88.50;;;;;;10446556;28;20296;-77
2022/07/04 03:41:08;;;;;;;3.73;3.40;;;22.00;86.80;;;;;;10442712;28;20229;-76
2022/07/04 03:46:10;;;;;;;3.40;3.20;;;21.90;88.90;;;;;;10450485;28;20225;-77
2022/07/04 03:51:13;;;;;;;3.00;2.90;;;21.90;86.60;;;;;;10458026;28;20213;-77
2022/07/04 03:56:16;;;;;;;3.30;3.10;;;21.90;87.40;;;;;;10454794;28;20197;-76
2022/07/04 04:01:19;;;;;;;3.43;3.13;;;21.80;87.70;;;;;;10439420;28;20271;-77
2022/07/04 04:06:21;;;;;;;3.27;3.07;;;21.90;86.20;;;;;;10451737;28;20197;-77
2022/07/04 04:11:25;;;;;;;3.23;3.03;;;21.80;86.60;;;;;;10452653;28;20217;-76
2022/07/04 04:16:27;;;;;;;3.00;2.90;;;21.80;89.00;;;;;;10453106;28;20205;-77
2022/07/04 04:21:29;;;;;;;3.30;3.10;;;21.80;89.70;;;;;;10454168;28;20292;-76
2022/07/04 04:26:36;;;;;;;10.63;9.60;;;21.80;88.00;;;;;;10432030;28;20564;-76
2022/07/04 04:31:38;;;;;;;3.60;3.40;;;21.90;89.10;;;;;;10451014;28;20320;-76
2022/07/04 04:36:40;;;;;;;3.43;3.20;;;21.90;88.40;;;;;;10452738;28;20310;-77
2022/07/04 04:41:43;;;;;;;3.50;3.20;;;21.90;88.70;;;;;;10453578;28;20864;-77
2022/07/04 04:46:45;;;;;;;3.33;3.13;;;21.90;87.40;;;;;;10450914;28;20232;-77
2022/07/04 04:51:47;;;;;;;3.30;3.03;;;22.00;86.90;;;;;;10450239;28;20236;-77
2022/07/04 04:56:51;;;;;;;3.17;2.97;;;22.00;86.70;;;;;;10438358;28;20217;-77
2022/07/04 05:01:53;;;;;;;3.67;3.33;;;22.00;86.70;;;;;;10446753;28;20225;-77
2022/07/04 05:06:55;;;;;;;3.47;3.20;;;22.10;87.40;;;;;;10450183;28;20412;-77
2022/07/04 05:11:58;;;;;;;6.53;3.20;;;22.10;86.80;;;;;;10452456;28;20217;-77
2022/07/04 05:17:01;;;;;;;2.90;2.70;;;22.20;85.50;;;;;;10448466;28;20205;-77
2022/07/04 05:22:03;;;;;;;6.20;2.70;;;22.20;84.80;;;;;;10444933;28;20258;-77
2022/07/04 05:27:07;;;;;;;3.80;3.37;;;22.10;84.00;;;;;;10447042;28;20342;-77
2022/07/04 05:32:09;;;;;;;3.07;2.90;;;22.20;83.50;;;;;;10450976;28;20256;-77
2022/07/04 05:37:11;;;;;;;3.40;3.10;;;22.20;83.50;;;;;;10453041;28;20196;-77
2022/07/04 05:42:15;;;;;;;3.30;3.00;;;22.20;85.50;;;;;;10447897;28;20312;-77
2022/07/04 05:47:17;;;;;;;2.40;2.20;;;22.20;84.10;;;;;;10431313;28;20630;-77
2022/07/04 05:52:19;;;;;;;2.70;2.60;;;22.20;85.30;;;;;;10450589;28;20248;-76
2022/07/04 05:57:22;;;;;;;3.17;2.70;;;22.30;84.10;;;;;;10451268;28;20217;-77
2022/07/04 06:02:25;;;;;;;3.73;3.23;;;22.40;84.00;;;;;;10444690;28;20225;-78
2022/07/04 06:07:27;;;;;;;3.67;2.83;;;22.50;82.90;;;;;;10447157;28;20688;-77
2022/07/04 06:12:30;;;;;;;2.60;2.40;;;22.70;82.10;;;;;;10446984;28;20256;-78
2022/07/04 06:17:32;;;;;;;3.20;3.00;;;22.80;81.10;;;;;;10448016;28;20209;-77
2022/07/04 06:22:41;;;;;;;3.93;3.20;;;22.90;80.10;;;;;;10451037;28;20299;-78
2022/07/04 06:27:46;;;;;;;2.40;2.30;;;23.00;81.40;;;;;;10445647;28;20197;-78
2022/07/04 06:32:49;;;;;;;3.30;3.10;;;23.10;82.10;;;;;;10446639;28;20208;-77
2022/07/04 06:37:51;;;;;;;3.13;2.87;;;23.20;79.50;;;;;;10446468;28;20221;-78
2022/07/04 06:42:55;;;;;;;4.50;2.97;;;23.30;81.10;;;;;;10446594;28;20243;-78
2022/07/04 06:47:59;;;;;;;2.30;2.20;;;23.40;81.80;;;;;;10456427;28;20305;-78
2022/07/04 06:53:01;;;;;;;3.03;2.80;;;23.60;79.60;;;;;;10451273;28;20247;-78
2022/07/04 06:58:06;;;;;;;2.50;2.30;;;23.70;79.70;;;;;;10445706;28;20252;-76
2022/07/04 07:03:08;;;;;;;5.57;2.50;;;23.80;78.80;;;;;;10446972;28;20197;-76
2022/07/04 07:08:10;;;;;;;3.30;3.00;;;24.00;77.60;;;;;;10448707;28;20564;-78
2022/07/04 07:13:14;;;;;;;4.13;2.80;;;24.20;77.60;;;;;;10449424;28;20223;-77
2022/07/04 07:18:16;;;;;;;2.80;2.60;;;24.30;77.70;;;;;;10448849;28;20595;-76
2022/07/04 07:23:18;;;;;;;3.27;2.90;;;24.40;76.10;;;;;;10455196;28;20201;-77
2022/07/04 07:28:22;;;;;;;2.97;2.60;;;24.50;76.30;;;;;;10464769;28;20271;-79
2022/07/04 07:33:24;;;;;;;3.87;2.60;;;24.60;75.90;;;;;;10463159;28;20229;-79
2022/07/04 07:38:26;;;;;;;2.83;2.47;;;24.70;76.00;;;;;;10458147;28;20245;-78
2022/07/04 07:43:30;;;;;;;2.80;2.20;;;24.70;74.60;;;;;;10453390;28;20679;-77
2022/07/04 07:48:32;;;;;;;3.23;3.03;;;24.70;75.00;;;;;;10453188;28;20645;-77
2022/07/04 07:53:34;;;;;;;2.60;2.50;;;24.60;74.70;;;;;;10437483;28;20201;-76
2022/07/04 07:58:37;;;;;;;3.80;2.73;;;24.60;75.40;;;;;;10455283;28;20231;-76
2022/07/04 08:09:00;;;;;;;3.10;2.50;;;24.70;74.10;;;;;;10451936;28;20263;-76
2022/07/04 08:14:06;;;;;;;3.70;3.10;;;24.70;75.10;;;;;;10453974;28;20197;-77
2022/07/04 08:19:08;;;;;;;5.27;2.63;;;24.80;75.00;;;;;;10454768;28;20313;-77
2022/07/04 08:24:10;;;;;;;3.00;2.80;;;24.80;75.70;;;;;;10456669;28;20254;-77
2022/07/04 08:29:20;;;;;;;2.97;2.50;;;24.80;76.50;;;;;;10459118;28;20267;-78
2022/07/04 08:34:22;;;;;;;2.90;2.80;;;24.80;75.90;;;;;;10457380;28;20693;-78
2022/07/04 08:39:24;;;;;;;5.63;2.63;;;24.90;76.70;;;;;;10459864;28;20709;-78
2022/07/04 08:44:28;;;;;;;12.37;2.50;;;25.00;75.70;;;;;;10460464;28;20212;-79
2022/07/04 08:49:32;;;;;;;2.47;2.27;;;25.10;76.80;;;;;;10462001;28;20279;-79
2022/07/04 08:59:56;;;;;;;2.20;2.00;;;25.50;75.50;;;;;;10458125;28;20221;-78
2022/07/04 09:04:58;;;;;;;4.60;2.90;;;25.70;74.70;;;;;;10459094;28;20228;-77
2022/07/04 09:10:00;;;;;;;2.97;2.77;;;25.80;74.70;;;;;;10460738;28;20217;-78
2022/07/04 09:15:05;;;;;;;2.77;2.53;;;26.00;74.80;;;;;;10453955;28;20217;-79
2022/07/04 09:20:16;;;;;;;2.80;2.43;;;26.20;72.70;;;;;;10456606;28;20221;-80
2022/07/04 09:25:19;;;;;;;4.50;3.10;;;26.30;72.90;;;;;;10454333;28;20286;-77
2022/07/04 09:30:25;;;;;;;2.67;2.47;;;26.40;74.30;;;;;;10442383;28;20234;-76
2022/07/04 09:35:28;;;;;;;2.93;2.73;;;26.70;71.10;;;;;;10438840;28;20198;-77
2022/07/04 09:41:24;;;;;;;3.40;3.10;;;27.40;72.50;;;;;;10442343;28;20221;-77
2022/07/04 09:46:01;;;;;;;2.87;2.67;;;28.10;68.70;;;;;;10453118;28;20294;-78
2022/07/04 09:51:04;;;;;;;3.80;2.70;;;29.20;65.80;;;;;;10450597;28;20295;-78
2022/07/04 09:56:06;;;;;;;3.93;2.90;;;30.50;62.80;;;;;;10447355;28;20210;-78
2022/07/04 10:01:10;;;;;;;3.27;3.07;;;31.60;59.90;;;;;;10432266;28;20319;-78
2022/07/04 10:06:15;;;;;;;3.43;2.87;;;32.40;57.60;;;;;;10441514;28;20193;-77
2022/07/04 10:11:18;;;;;;;5.40;3.10;;;33.70;56.50;;;;;;10435899;28;20283;-78
2022/07/04 10:16:22;;;;;;;2.77;2.57;;;35.40;55.00;;;;;;10442310;28;20193;-78
2022/07/04 10:21:24;;;;;;;2.63;2.43;;;36.30;51.30;;;;;;10438051;28;20595;-78
2022/07/04 10:26:28;;;;;;;2.70;2.50;;;36.20;50.60;;;;;;10431590;28;20233;-77
2022/07/04 10:31:34;;;;;;;2.73;2.57;;;35.30;51.50;;;;;;10434373;28;20607;-77
2022/07/04 10:36:36;;;;;;;1.93;1.83;;;33.90;53.20;;;;;;10431741;28;20205;-77
2022/07/04 10:41:58;;;;;;;3.30;2.67;;;32.50;54.00;;;;;;10439348;28;20256;-77
2022/07/04 10:47:01;;;;;;;4.57;3.07;;;31.30;55.10;;;;;;10432718;28;20197;-77
2022/07/04 10:52:12;;;;;;;3.23;2.90;;;30.30;57.20;;;;;;10432521;28;20232;-77
2022/07/04 10:57:16;;;;;;;2.70;2.60;;;29.40;58.20;;;;;;10439598;28;20285;-76
2022/07/04 11:02:27;;;;;;;4.00;3.70;;;28.70;60.50;;;;;;10443071;28;20235;-77
2022/07/04 11:08:02;;;;;;;4.20;3.80;;;28.30;60.60;;;;;;10435515;28;20205;-77
2022/07/04 11:13:21;;;;;;;4.03;3.03;;;27.90;62.30;;;;;;10423742;28;20215;-76
2022/07/04 11:18:28;;;;;;;3.67;2.80;;;27.70;62.90;;;;;;10437266;28;20301;-76
2022/07/04 11:23:30;;;;;;;3.70;2.97;;;27.50;63.20;;;;;;10442610;28;20242;-76
2022/07/04 11:28:35;;;;;;;2.93;2.40;;;27.30;63.20;;;;;;10443754;28;20342;-76
2022/07/04 11:33:39;;;;;;;3.33;3.00;;;27.10;65.10;;;;;;10448803;28;20247;-77
2022/07/04 11:38:50;;;;;;;3.27;2.97;;;26.80;68.60;;;;;;10451245;28;20290;-76
2022/07/04 11:49:13;;;;;;;3.47;3.17;;;26.40;65.90;;;;;;10449055;28;20217;-79
2022/07/04 11:54:18;;;;;;;3.13;2.83;;;26.10;66.30;;;;;;10454578;28;20209;-79
2022/07/04 11:59:20;;;;;;;3.50;2.70;;;25.90;68.30;;;;;;10454454;28;20271;-79
2022/07/04 12:04:23;;;;;;;2.73;2.40;;;25.80;68.00;;;;;;10460473;28;20268;-78
2022/07/04 12:09:25;;;;;;;2.97;2.63;;;25.80;68.80;;;;;;10469803;28;20606;-78
2022/07/04 12:14:28;;;;;;;3.00;2.80;;;25.80;69.00;;;;;;10456617;28;20288;-78
2022/07/04 12:19:31;;;;;;;3.00;2.90;;;25.80;68.50;;;;;;10455487;28;20227;-79
2022/07/04 12:24:42;;;;;;;6.47;2.93;;;25.80;68.30;;;;;;10457011;28;20303;-78
2022/07/04 12:29:48;;;;;;;3.53;3.20;;;25.80;68.70;;;;;;10457710;28;20221;-78
2022/07/04 12:34:51;;;;;;;3.73;3.43;;;25.80;67.20;;;;;;10453677;28;20193;-78
2022/07/04 12:39:53;;;;;;;3.03;2.90;;;25.80;68.40;;;;;;10453826;28;20252;-79
2022/07/04 12:45:06;;;;;;;2.63;2.53;;;25.90;69.10;;;;;;10454594;28;20205;-78
2022/07/04 12:50:10;;;;;;;3.10;2.90;;;26.00;68.50;;;;;;10473898;28;20214;-78
2022/07/04 12:55:15;;;;;;;2.90;2.70;;;26.00;68.40;;;;;;10458680;28;20215;-78
2022/07/04 13:00:17;;;;;;;3.53;2.90;;;26.20;65.80;;;;;;10454927;28;20249;-79
2022/07/04 13:05:21;;;;;;;4.80;4.40;;;26.30;66.10;;;;;;10456798;28;20201;-79
2022/07/04 13:10:23;;;;;;;3.70;3.40;;;26.40;68.20;;;;;;10458355;28;20224;-79
2022/07/04 13:15:26;;;;;;;3.50;2.93;;;26.40;66.70;;;;;;10458763;28;20201;-79
2022/07/04 13:20:29;;;;;;;2.80;2.60;;;26.30;67.20;;;;;;10447244;28;20217;-78
2022/07/04 13:25:31;;;;;;;2.93;2.83;;;26.20;69.10;;;;;;10449163;28;20225;-78
2022/07/04 13:30:34;;;;;;;2.53;2.40;;;26.10;68.60;;;;;;10451942;28;20221;-78
2022/07/04 13:35:37;;;;;;;3.97;2.40;;;26.10;68.30;;;;;;10452259;28;20225;-79
2022/07/04 13:40:39;;;;;;;2.93;2.83;;;26.10;68.00;;;;;;10457671;28;20700;-78
2022/07/04 13:45:44;;;;;;;2.80;2.60;;;26.10;68.10;;;;;;10449132;28;20205;-79
2022/07/04 13:50:47;;;;;;;2.47;2.37;;;26.20;68.70;;;;;;10458629;28;20221;-78
2022/07/04 13:55:49;;;;;;;2.63;2.43;;;26.40;65.90;;;;;;10450585;28;20288;-78
2022/07/04 14:00:51;;;;;;;3.00;2.80;;;26.60;66.40;;;;;;10449984;28;20745;-78
2022/07/04 14:05:55;;;;;;;2.90;2.70;;;26.50;67.60;;;;;;10451383;28;20224;-77
2022/07/04 14:10:57;;;;;;;3.03;2.83;;;26.70;66.40;;;;;;10449715;28;20401;-80
2022/07/04 14:16:00;;;;;;;5.33;2.80;;;26.80;65.80;;;;;;10442728;28;20432;-79
2022/07/04 14:21:03;;;;;;;3.00;2.77;;;26.80;66.40;;;;;;10448645;28;20224;-81
2022/07/04 14:26:05;;;;;;;3.17;2.87;;;26.70;67.10;;;;;;10440891;28;20782;-79
2022/07/04 14:31:08;;;;;;;2.73;2.50;;;26.90;67.30;;;;;;10439490;28;20244;-80
2022/07/04 14:36:11;;;;;;;2.60;2.50;;;27.00;65.90;;;;;;10439058;28;20198;-81
2022/07/04 14:41:13;;;;;;;3.33;2.83;;;27.10;66.70;;;;;;10423840;28;20380;-81
2022/07/04 14:46:15;;;;;;;2.70;2.50;;;27.20;65.70;;;;;;10459571;28;20318;-81
2022/07/04 14:51:19;;;;;;;3.40;2.50;;;27.20;65.60;;;;;;10456796;28;20248;-80
2022/07/04 14:56:21;;;;;;;3.00;2.60;;;27.10;66.70;;;;;;10452548;28;20205;-80
2022/07/04 15:01:23;;;;;;;3.00;2.80;;;26.90;67.20;;;;;;10452697;28;20225;-80
2022/07/04 15:06:27;;;;;;;3.57;3.00;;;26.70;69.40;;;;;;10455799;28;20280;-80
2022/07/04 15:11:29;;;;;;;2.50;2.30;;;26.60;66.70;;;;;;10463340;28;20217;-78
2022/07/04 15:16:31;;;;;;;3.60;2.70;;;26.40;68.40;;;;;;10457019;28;20280;-80
2022/07/04 15:26:54;;;;;;;3.10;2.90;;;26.20;69.60;;;;;;10450886;28;20211;-79
2022/07/04 15:31:56;;;;;;;3.47;3.17;;;26.20;68.50;;;;;;10451886;28;20228;-79
2022/07/04 15:37:00;;;;;;;3.77;2.83;;;26.20;68.80;;;;;;10454389;28;20741;-79
2022/07/04 15:42:02;;;;;;;2.70;2.53;;;26.30;68.20;;;;;;10454790;28;20298;-80
2022/07/04 15:47:10;;;;;;;4.43;2.50;;;26.40;68.10;;;;;;10459197;28;20235;-79
2022/07/04 15:52:14;;;;;;;3.83;3.23;;;26.40;67.50;;;;;;10459161;28;20237;-80
2022/07/04 15:57:16;;;;;;;3.07;2.77;;;26.50;68.00;;;;;;10459591;28;20239;-80
2022/07/04 16:02:18;;;;;;;4.93;2.80;;;26.40;68.10;;;;;;10462219;28;20324;-79
2022/07/04 16:07:21;;;;;;;2.77;2.57;;;26.40;69.70;;;;;;10462074;28;20189;-79
2022/07/04 16:12:23;;;;;;;3.40;2.90;;;26.30;68.60;;;;;;10459033;28;20205;-78
2022/07/04 16:17:25;;;;;;;2.73;2.53;;;26.20;67.30;;;;;;10452202;28;20201;-79
2022/07/04 16:22:29;;;;;;;3.07;2.87;;;26.20;67.10;;;;;;10449958;28;20684;-78
2022/07/04 16:27:31;;;;;;;3.03;2.83;;;26.10;66.90;;;;;;10452095;28;20205;-78
2022/07/04 16:32:34;;;;;;;2.70;2.60;;;26.10;67.50;;;;;;10443069;28;20686;-78
2022/07/04 16:37:38;;;;;;;2.43;2.23;;;26.10;68.60;;;;;;10425530;28;20197;-77
2022/07/04 16:42:40;;;;;;;4.60;1.90;;;26.20;64.40;;;;;;10449226;28;20677;-78
2022/07/04 16:47:42;;;;;;;2.60;2.40;;;26.20;63.80;;;;;;10443594;28;20243;-76
2022/07/04 16:52:45;;;;;;;2.30;2.20;;;26.40;66.00;;;;;;10444293;28;20287;-78
2022/07/04 16:57:48;;;;;;;2.43;2.23;;;26.40;62.70;;;;;;10449736;28;20200;-78
2022/07/04 17:02:50;;;;;;;2.47;2.27;;;26.40;61.90;;;;;;10445395;28;20244;-78
2022/07/04 17:07:53;;;;;;;2.13;2.03;;;26.30;62.20;;;;;;10439729;28;20286;-79
2022/07/04 17:12:55;;;;;;;2.00;1.90;;;26.20;62.60;;;;;;10439030;28;21027;-78
2022/07/04 17:17:58;;;;;;;2.37;2.27;;;26.20;59.60;;;;;;10446606;28;20303;-79
2022/07/04 17:23:01;;;;;;;2.10;2.00;;;26.20;59.30;;;;;;10444757;28;20298;-78
2022/07/04 17:28:04;;;;;;;1.90;1.80;;;26.30;59.10;;;;;;10440739;28;20221;-78
2022/07/04 17:33:06;;;;;;;2.03;1.93;;;26.30;60.60;;;;;;10445137;28;20282;-79
2022/07/04 17:38:09;;;;;;;2.40;2.20;;;26.30;58.40;;;;;;10445281;28;20264;-78
2022/07/04 17:43:11;;;;;;;2.40;2.20;;;26.20;58.30;;;;;;10451553;28;20255;-79
2022/07/04 17:48:16;;;;;;;2.10;2.00;;;26.20;58.20;;;;;;10449362;28;20225;-80
2022/07/04 17:53:20;;;;;;;2.17;2.07;;;26.20;57.20;;;;;;10446895;28;20681;-80
2022/07/04 17:58:22;;;;;;;2.80;2.60;;;26.00;58.70;;;;;;10446677;28;20248;-80
2022/07/04 18:03:26;;;;;;;2.93;2.73;;;26.00;57.80;;;;;;10443596;28;20217;-80
2022/07/04 18:08:30;;;;;;;2.80;2.63;;;25.90;57.60;;;;;;10439209;28;20278;-78
2022/07/04 18:13:32;;;;;;;2.90;2.70;;;25.80;61.50;;;;;;10440005;28;20742;-78
2022/07/04 18:18:35;;;;;;;2.40;2.30;;;25.70;59.20;;;;;;10441389;28;20232;-81
2022/07/04 18:23:42;;;;;;;2.60;2.40;;;25.60;60.90;;;;;;10448391;28;20224;-80
2022/07/04 18:28:44;;;;;;;2.80;2.70;;;25.50;59.80;;;;;;10444441;28;20867;-81
2022/07/04 18:33:47;;;;;;;3.23;2.50;;;25.50;59.90;;;;;;10446725;28;20209;-77
2022/07/04 18:38:51;;;;;;;2.30;2.20;;;25.50;60.20;;;;;;10439380;28;20256;-78
2022/07/04 18:43:53;;;;;;;4.70;2.60;;;25.40;65.90;;;;;;10429321;28;20232;-78
2022/07/04 18:48:55;;;;;;;4.33;3.00;;;25.30;61.40;;;;;;10439223;28;20671;-78
2022/07/04 18:53:58;;;;;;;2.70;2.60;;;25.30;60.90;;;;;;10440089;28;20270;-77
2022/07/04 18:59:01;;;;;;;2.90;2.70;;;25.20;63.30;;;;;;10432253;28;20214;-79
2022/07/04 19:04:05;;;;;;;2.30;2.20;;;25.20;65.00;;;;;;10432979;28;20266;-78
2022/07/04 19:09:08;;;;;;;2.07;1.97;;;25.10;61.70;;;;;;10428685;28;20237;-78
2022/07/04 19:14:10;;;;;;;3.30;3.00;;;25.10;67.00;;;;;;10437579;28;20716;-78
2022/07/04 19:19:13;;;;;;;2.57;2.47;;;25.00;60.10;;;;;;10451982;28;20417;-77
2022/07/04 19:24:17;;;;;;;1.70;1.60;;;25.00;65.90;;;;;;10440575;28;20221;-77
2022/07/04 19:29:19;;;;;;;4.83;3.20;;;24.90;66.80;;;;;;10451445;28;20240;-77
2022/07/04 19:34:21;;;;;;;3.93;3.70;;;24.80;70.60;;;;;;10440046;28;20197;-78
2022/07/04 19:39:25;;;;;;;2.67;2.50;;;24.80;67.80;;;;;;10445395;28;20235;-79
2022/07/04 19:44:27;;;;;;;2.93;2.73;;;24.70;64.60;;;;;;10446837;28;20225;-77
2022/07/04 19:49:29;;;;;;;2.80;2.70;;;24.60;64.80;;;;;;10442607;28;20233;-77
2022/07/04 19:54:33;;;;;;;2.80;2.60;;;24.40;65.20;;;;;;10444249;28;20351;-77
2022/07/04 19:59:35;;;;;;;2.63;2.43;;;24.20;65.10;;;;;;10441212;28;20218;-77
2022/07/04 20:04:37;;;;;;;2.10;2.00;;;24.00;65.00;;;;;;10443463;28;20368;-78
2022/07/04 20:09:41;;;;;;;2.67;2.57;;;23.80;65.20;;;;;;10431620;28;20232;-77
2022/07/04 20:14:45;;;;;;;3.47;2.60;;;23.70;65.60;;;;;;10441952;28;20246;-78
2022/07/04 20:19:48;;;;;;;2.87;2.67;;;23.50;66.20;;;;;;10436819;28;20241;-77
2022/07/04 20:24:53;;;;;;;3.03;2.70;;;23.40;65.90;;;;;;10431638;28;20310;-77
2022/07/04 20:29:56;;;;;;;2.97;2.87;;;23.20;67.50;;;;;;10446488;28;20304;-80
2022/07/04 20:35:00;;;;;;;2.90;2.67;;;23.10;70.70;;;;;;10468367;28;20205;-79
2022/07/04 20:40:05;;;;;;;2.90;2.70;;;22.90;71.90;;;;;;10451556;28;20225;-78
2022/07/04 20:45:09;;;;;;;2.63;2.30;;;22.80;73.60;;;;;;10442793;28;20284;-78
2022/07/04 20:50:12;;;;;;;2.70;2.50;;;22.70;74.40;;;;;;10454035;28;20233;-77
2022/07/04 20:55:15;;;;;;;3.23;2.80;;;22.60;75.60;;;;;;10450621;28;20697;-77
2022/07/04 21:00:18;;;;;;;2.73;2.60;;;22.50;77.50;;;;;;10445587;28;20241;-77
2022/07/04 21:05:21;;;;;;;4.10;3.00;;;22.40;75.50;;;;;;10449687;28;20284;-76
2022/07/04 21:10:25;;;;;;;3.97;3.57;;;22.40;74.80;;;;;;10447744;28;20241;-76
2022/07/04 21:15:28;;;;;;;2.83;2.63;;;22.40;76.40;;;;;;10434967;28;20189;-76
2022/07/04 21:20:30;;;;;;;3.30;3.03;;;22.40;81.80;;;;;;10453546;28;20231;-76
2022/07/04 21:25:33;;;;;;;3.03;2.83;;;22.50;78.60;;;;;;10444835;28;20203;-76
2022/07/04 21:30:36;;;;;;;3.10;2.70;;;22.60;81.40;;;;;;10438279;28;20701;-76
2022/07/04 21:35:38;;;;;;;3.07;2.60;;;22.60;77.80;;;;;;10452279;28;20228;-76
2022/07/04 21:40:41;;;;;;;3.10;2.90;;;22.50;76.30;;;;;;10457564;28;20220;-76
2022/07/04 21:45:43;;;;;;;2.90;2.60;;;22.50;76.70;;;;;;10456739;28;20244;-76
2022/07/04 21:50:45;;;;;;;2.77;2.57;;;22.50;77.30;;;;;;10435774;28;20220;-75
2022/07/04 21:55:49;;;;;;;3.13;2.93;;;22.40;75.70;;;;;;10445191;28;20637;-76
2022/07/04 22:00:51;;;;;;;2.30;2.17;;;22.30;74.80;;;;;;10444212;28;20248;-77
2022/07/04 22:05:53;;;;;;;2.57;2.30;;;22.30;75.50;;;;;;10444498;28;20213;-79
2022/07/04 22:10:57;;;;;;;2.30;2.20;;;22.30;74.70;;;;;;10449504;28;20245;-78
2022/07/04 22:15:59;;;;;;;2.43;2.33;;;22.30;73.40;;;;;;10445416;28;20243;-78
2022/07/04 22:21:01;;;;;;;2.40;2.30;;;22.30;74.80;;;;;;10449704;28;20248;-77
2022/07/04 22:26:04;;;;;;;2.90;2.70;;;22.20;72.80;;;;;;10449521;28;20280;-78
2022/07/04 22:37:23;;;;;;;2.40;2.30;;;22.10;73.60;;;;;;10442381;28;20177;-78
2022/07/04 22:42:26;;;;;;;3.13;2.50;;;22.10;73.90;;;;;;10446981;28;20248;-80
2022/07/04 22:47:28;;;;;;;2.50;2.40;;;22.00;74.60;;;;;;10450185;28;20220;-80
2022/07/04 22:52:34;;;;;;;2.40;2.20;;;21.90;74.00;;;;;;10439209;28;20216;-78
2022/07/04 22:57:39;;;;;;;2.30;2.20;;;21.80;75.10;;;;;;10434032;28;20488;-78
2022/07/04 23:02:42;;;;;;;2.73;2.63;;;21.80;74.00;;;;;;10437113;28;20304;-77
2022/07/04 23:07:44;;;;;;;2.50;2.30;;;21.70;73.60;;;;;;10429293;28;20660;-76
2022/07/04 23:12:48;;;;;;;3.00;2.70;;;21.70;75.00;;;;;;10431089;28;20668;-77
2022/07/04 23:17:50;;;;;;;2.67;2.47;;;21.60;73.90;;;;;;10422544;28;20748;-79
2022/07/04 23:22:52;;;;;;;2.50;2.40;;;21.50;75.10;;;;;;10435562;28;21028;-76
2022/07/04 23:27:55;;;;;;;2.63;2.53;;;21.50;75.60;;;;;;10442486;28;20263;-78
2022/07/04 23:32:58;;;;;;;2.67;2.47;;;21.50;75.20;;;;;;10430658;28;20208;-79
2022/07/04 23:38:00;;;;;;;2.40;2.30;;;21.40;76.10;;;;;;10431075;28;20722;-78
2022/07/04 23:43:03;;;;;;;2.40;2.30;;;21.40;75.20;;;;;;10448777;28;20228;-78
2022/07/04 23:48:06;;;;;;;4.00;2.60;;;21.40;75.00;;;;;;10440810;28;20766;-77
2022/07/04 23:53:08;;;;;;;4.90;2.70;;;21.30;76.20;;;;;;10443247;28;20731;-76
2022/07/04 23:58:11;;;;;;;2.37;2.27;;;21.20;75.70;;;;;;10451525;28;20217;-78
